< < Back
Terminal Aerodrome Forecast


Current Version              Previous Versions:   1  2  3  4  5  6  7  8  9  

Terminal Aerodrome Forecast

976
FTUS42 KMLB 241731
TAFMCO
TAF
KMCO 241731Z 2418/2518 06005KT P6SM SCT030
     FM242100 09008KT P6SM VCTS SCT040CB
     FM250000 VRB03KT P6SM FEW025 BKN250
     FM251500 03005KT P6SM SCT025 SCT250=



Latest METAR

000
SAUS70 KWBC 242200 RRG
MTRMCO
METAR KMCO 242153Z 09014KT 10SM FEW050 SCT250 29/23 A2999 RMK AO2 SLP154
CB DSNT N SE-SW T02940228


USA.gov is the U.S. government's official web portal to all federal, state and local government web resources and services.